CheckWX is a tool to help pilots better visualize weather data.  It is not intended as a substitute for an official pre-flight weather briefing.

10:50:18 UTC

KCSV METAR
Crossville Memorial-Whitson Field Airport
Crossville, Tennessee, USA
Current

12 mins ago

KCSV 281038Z AUTO 05004KT 1/4SM FZFG VV002 M01/M02 A3001 RMK AO2 T10061017
Observed
Jan-28 @ 10:38 UTC
Wind
  • 050° at 4 KTS
Visibility
1/4 SM
Flight Rules
LIFR
Conditions
Freezing Fog
Cloud Levels
  • Vertical visibility at 200' AGL
Temperature
-1°C / 30°F
Dewpoint
-2°C / 28°F
Humidity
93%
Altimeter
30.01" Hg
Pressure
1016.22 hPa
Previous

19 mins ago

KCSV 281031Z AUTO 05003KT 1/2SM FZFG VV002 M01/M02 A3000 RMK AO2 T10061017
Observed
Jan-28 @ 10:31 UTC
Wind
  • 050° at 3 KTS
Visibility
1/2 SM
Flight Rules
LIFR
Conditions
Freezing Fog
Cloud Levels
  • Vertical visibility at 200' AGL
Temperature
-1°C / 30°F
Dewpoint
-2°C / 28°F
Humidity
93%
Altimeter
30" Hg
Pressure
1015.92 hPa
Previous

29 mins ago

KCSV 281021Z AUTO 06004KT 3/4SM BR OVC003 M01/M02 A3000 RMK AO2 T10061017
Observed
Jan-28 @ 10:21 UTC
Wind
  • 060° at 4 KTS
Visibility
3/4 SM
Flight Rules
LIFR
Conditions
Mist
Cloud Levels
  • Overcast at 300' AGL
Temperature
-1°C / 30°F
Dewpoint
-2°C / 28°F
Humidity
93%
Altimeter
30" Hg
Pressure
1015.92 hPa